地図

経路データ

SID SEASON NUMBER BASIN SUBBASIN NAME ISO_TIME NATURE LAT LON WMO_WIND WMO_PRES WMO_AGENCY TRACK_TYPE DIST2LAND LANDFALL IFLAG USA_AGENCY USA_ATCF_ID USA_LAT USA_LON USA_RECORD USA_STATUS USA_WIND USA_PRES USA_SSHS USA_R34_NE USA_R34_SE USA_R34_SW USA_R34_NW USA_R50_NE USA_R50_SE USA_R50_SW USA_R50_NW USA_R64_NE USA_R64_SE USA_R64_SW USA_R64_NW USA_POCI USA_ROCI USA_RMW USA_EYE TOKYO_LAT TOKYO_LON TOKYO_GRADE TOKYO_WIND TOKYO_PRES TOKYO_R50_DIR TOKYO_R50_LONG TOKYO_R50_SHORT TOKYO_R30_DIR TOKYO_R30_LONG TOKYO_R30_SHORT TOKYO_LAND CMA_LAT CMA_LON CMA_CAT CMA_WIND CMA_PRES HKO_LAT HKO_LON HKO_CAT HKO_WIND HKO_PRES NEWDELHI_LAT NEWDELHI_LON NEWDELHI_GRADE NEWDELHI_WIND NEWDELHI_PRES NEWDELHI_CI NEWDELHI_DP NEWDELHI_POCI REUNION_LAT REUNION_LON REUNION_TYPE REUNION_WIND REUNION_PRES REUNION_TNUM REUNION_CI REUNION_RMW REUNION_R34_NE REUNION_R34_SE REUNION_R34_SW REUNION_R34_NW REUNION_R50_NE REUNION_R50_SE REUNION_R50_SW REUNION_R50_NW REUNION_R64_NE REUNION_R64_SE REUNION_R64_SW REUNION_R64_NW BOM_LAT BOM_LON BOM_TYPE BOM_WIND BOM_PRES BOM_TNUM BOM_CI BOM_RMW BOM_R34_NE BOM_R34_SE BOM_R34_SW BOM_R34_NW BOM_R50_NE BOM_R50_SE BOM_R50_SW BOM_R50_NW BOM_R64_NE BOM_R64_SE BOM_R64_SW BOM_R64_NW BOM_ROCI BOM_POCI BOM_EYE BOM_POS_METHOD BOM_PRES_METHOD NADI_LAT NADI_LON NADI_CAT NADI_WIND NADI_PRES WELLINGTON_LAT WELLINGTON_LON WELLINGTON_WIND WELLINGTON_PRES DS824_LAT DS824_LON DS824_STAGE DS824_WIND DS824_PRES TD9636_LAT TD9636_LON TD9636_STAGE TD9636_WIND TD9636_PRES TD9635_LAT TD9635_LON TD9635_WIND TD9635_PRES TD9635_ROCI NEUMANN_LAT NEUMANN_LON NEUMANN_CLASS NEUMANN_WIND NEUMANN_PRES MLC_LAT MLC_LON MLC_CLASS MLC_WIND MLC_PRES USA_GUST BOM_GUST BOM_GUST_PER REUNION_GUST REUNION_GUST_PER USA_SEAHGT USA_SEARAD_NE USA_SEARAD_SE USA_SEARAD_SW USA_SEARAD_NW STORM_SPEED STORM_DIR
2020091S10145 2020 19 SP EA NOT_NAMED 2020-03-31 00:00:00 NR -9.90000 145.300 20 1006 bom main 172 172 ______O_______ -1 -9.90000 145.300 20 20 1006 45 45 3 269
2020091S10145 2020 19 SP EA NOT_NAMED 2020-03-31 03:00:00 NR -9.90250 145.158 main 181 181 ______P_______ -1 -9.90250 145.158 20 20 1005 3 270
2020091S10145 2020 19 SP EA NOT_NAMED 2020-03-31 06:00:00 NR -9.90000 145.000 20 1005 bom main 199 183 ______O_______ -1 -9.90000 145.000 20 20 1005 3 45 45 3 274
2020091S10145 2020 19 SP EA NOT_NAMED 2020-03-31 09:00:00 NR -9.88001 144.827 main 183 168 ______P_______ -1 -9.88001 144.827 20 20 1005 3 289
2020091S10145 2020 19 SP EA NOT_NAMED 2020-03-31 12:00:00 NR -9.80000 144.700 20 1005 bom main 168 157 ______O_______ -1 -9.80000 144.700 20 20 1005 45 45 3 329
2020091S10145 2020 19 SP EA NOT_NAMED 2020-03-31 15:00:00 NR -9.60748 144.663 main 157 149 ______P_______ -1 -9.60748 144.663 20 20 1005 4 0
2020091S10145 2020 19 SP EA NOT_NAMED 2020-03-31 18:00:00 NR -9.40000 144.700 20 1005 bom main 149 146 ______O_______ -1 -9.40000 144.700 20 20 1005 45 45 3 20
2020091S10145 2020 19 SP EA NOT_NAMED 2020-03-31 21:00:00 NR -9.28500 144.785 main 157 145 ______P_______ -1 -9.28500 144.785 20 20 1004 3 45
2020091S10145 2020 19 SP EA NOT_NAMED 2020-04-01 00:00:00 NR -9.20000 144.900 20 1004 bom main 145 130 ______O_______ -1 -9.20000 144.900 20 20 1004 1.00000 1.00000 3 45 45 3 49
2020091S10145 2020 19 SP EA NOT_NAMED 2020-04-01 03:00:00 NR -9.10000 145.000 main 130 116 ______P_______ -1 -9.10000 145.000 20 20 1003 3 45
2020091S10145 2020 19 SP EA NOT_NAMED 2020-04-01 06:00:00 NR -9.00000 145.100 20 1002 bom main 116 103 ______O_______ -1 -9.00000 145.100 20 20 1002 1.00000 1.00000 45 45 3 44
2020091S10145 2020 19 SP EA NOT_NAMED 2020-04-01 09:00:00 NR -8.89999 145.193 main 103 90 ______P_______ -1 -8.89999 145.193 20 22 1002 3 45
2020091S10145 2020 19 SP EA NOT_NAMED 2020-04-01 12:00:00 NR -8.80000 145.300 25 1002 bom main 90 78 ______O_______ -1 -8.80000 145.300 20 25 1002 1.50000 1.50000 45 45 3 51
2020091S10145 2020 19 SP EA NOT_NAMED 2020-04-01 15:00:00 NR -8.70000 145.443 main 78 67 ______P_______ -1 -8.70000 145.443 20 25 1001 4 56
2020091S10145 2020 19 SP EA NOT_NAMED 2020-04-01 18:00:00 NR -8.60000 145.600 25 1000 bom main 67 47 ______O_______ -1 -8.60000 145.600 20 25 1000 2.00000 2.00000 3 45 45 4 59
2020091S10145 2020 19 SP EA NOT_NAMED 2020-04-01 21:00:00 NR -8.50001 145.780 main 47 31 ______P_______ -1 -8.50001 145.780 20 27 999 4 56
2020091S10145 2020 19 SP EA NOT_NAMED 2020-04-02 00:00:00 NR -8.40000 145.900 30 999 bom main 31 24 ______O_______ -1 -8.40000 145.900 20 30 999 2.50000 2.50000 49 49 2 28
2020091S10145 2020 19 SP EA NOT_NAMED 2020-04-02 03:00:00 NR -8.29249 145.887 main 24 22 ______P_______ -1 -8.29249 145.887 20 30 999 2 333
2020091S10145 2020 19 SP EA NOT_NAMED 2020-04-02 06:00:00 NR -8.20000 145.800 30 999 bom main 22 11 ______O_______ -1 -8.20000 145.800 20 30 999 2.50000 2.50000 3 49 49 3 317
2020091S10145 2020 19 SP EA NOT_NAMED 2020-04-02 09:00:00 NR -8.10500 145.707 main 11 11 ______P_______ -1 -8.10500 145.707 20 30 999 2 297
2020091S10145 2020 19 SP EA NOT_NAMED 2020-04-02 12:00:00 NR -8.10000 145.600 30 1000 bom main 11 11 ______O_______ -1 -8.10000 145.600 20 30 1000 2.00000 2.50000 45 45 3 236
2020091S10145 2020 19 SP EA NOT_NAMED 2020-04-02 15:00:00 NR -8.26251 145.470 main 33 33 ______P_______ -1 -8.26250 145.470 20 27 1001 4 206
2020091S10145 2020 19 SP EA NOT_NAMED 2020-04-02 18:00:00 NR -8.50000 145.400 25 1002 bom main 56 56 ______O_______ -1 -8.50000 145.400 20 25 1002 1.50000 2.00000 45 45 5 0
2020091S10145 2020 19 SP EA NOT_NAMED 2020-04-02 21:00:00 NR -8.71251 145.460 main 78 78 ______P_______ -1 -8.71251 145.460 20 22 1002 4 154
2020091S10145 2020 19 SP EA NOT_NAMED 2020-04-03 00:00:00 NR -8.90000 145.600 20 1002 bom main 89 ______O_______ -1 -8.90000 145.600 20 20 1002 1.00000 1.50000 3 45 45 5 144

デジタル台風データ・検索

IBTrACS Databaseについて

本データベースは、米国NOAAが公開する1842年以降の世界の熱帯低気圧のベストトラックデータアーカイブInternational Best Track Archive for Climate Stewardship (IBTrACS)を、ウェブで閲覧しやすい形式に変換したものです。

最終更新日:2021-12-03